createdAt,value
2018-11-28T00:01:10.424Z,62.40
2018-11-28T00:03:42.947Z,62.00
2018-11-28T00:06:15.290Z,63.00
2018-11-28T00:08:47.735Z,63.50
2018-11-28T00:11:20.252Z,63.30
2018-11-28T00:13:52.415Z,64.50
2018-11-28T00:16:24.771Z,65.80
2018-11-28T00:18:57.035Z,67.70
2018-11-28T00:21:29.430Z,69.10
2018-11-28T00:24:01.583Z,70.50
2018-11-28T00:26:34.151Z,71.30
2018-11-28T00:29:07.017Z,72.20
2018-11-28T00:31:39.613Z,72.80
2018-11-28T00:34:11.739Z,73.70
2018-11-28T00:36:44.733Z,74.30
2018-11-28T00:39:17.193Z,75.20
2018-11-28T00:41:49.408Z,75.70
2018-11-28T00:44:22.388Z,76.30
2018-11-28T00:46:55.062Z,76.90
2018-11-28T00:49:27.446Z,77.30
2018-11-28T00:52:00.082Z,77.70
2018-11-28T00:54:32.619Z,78.00
2018-11-28T00:57:04.819Z,78.50
2018-11-28T00:59:37.313Z,78.30
2018-11-28T01:02:09.719Z,78.50
2018-11-28T01:04:42.256Z,77.70
2018-11-28T01:07:14.656Z,77.50
2018-11-28T01:09:47.036Z,77.20
2018-11-28T01:12:19.251Z,77.20
2018-11-28T01:14:51.398Z,77.00
2018-11-28T01:17:23.778Z,77.20
2018-11-28T01:19:56.416Z,77.10
2018-11-28T01:22:30.482Z,77.50
2018-11-28T01:25:02.941Z,77.90
2018-11-28T01:27:35.295Z,78.40
2018-11-28T01:30:09.694Z,79.00
2018-11-28T01:32:41.778Z,79.60
2018-11-28T01:35:14.786Z,79.80
2018-11-28T01:37:47.293Z,80.10
2018-11-28T01:40:21.397Z,80.40
2018-11-28T01:42:54.161Z,80.70
2018-11-28T01:45:26.537Z,81.20
2018-11-28T01:47:58.783Z,81.50
2018-11-28T01:50:31.381Z,82.20
2018-11-28T01:53:04.767Z,82.70
2018-11-28T01:55:37.343Z,83.10
2018-11-28T01:58:10.167Z,83.00
2018-11-28T02:00:43.116Z,82.70
2018-11-28T02:03:17.755Z,82.50
2018-11-28T02:05:50.200Z,83.10
2018-11-28T02:08:22.782Z,82.80
2018-11-28T02:10:55.375Z,82.80
2018-11-28T02:13:27.665Z,82.90
2018-11-28T02:15:59.931Z,82.70
2018-11-28T02:18:32.160Z,82.30
2018-11-28T02:21:04.522Z,82.00
2018-11-28T02:23:37.753Z,82.20
2018-11-28T02:26:10.084Z,82.50
2018-11-28T02:28:43.410Z,82.50
2018-11-28T02:31:15.830Z,82.50
2018-11-28T02:33:48.208Z,82.50
2018-11-28T02:36:20.586Z,82.50
2018-11-28T02:38:52.856Z,82.60
2018-11-28T02:41:25.513Z,82.10
2018-11-28T02:44:02.560Z,82.20
2018-11-28T02:46:35.823Z,81.70
2018-11-28T02:49:08.073Z,81.60
2018-11-28T02:51:40.659Z,80.80
2018-11-28T02:54:14.255Z,80.40
2018-11-28T02:56:47.766Z,79.90
2018-11-28T02:59:19.932Z,78.20
2018-11-28T03:01:52.149Z,77.40
2018-11-28T03:04:24.707Z,76.60
2018-11-28T03:06:57.236Z,76.80
2018-11-28T03:09:29.619Z,76.20
2018-11-28T03:12:02.332Z,76.30
2018-11-28T03:14:34.944Z,75.10
2018-11-28T03:17:07.721Z,74.30
2018-11-28T03:19:40.056Z,74.60
2018-11-28T03:22:12.430Z,74.40
2018-11-28T03:24:44.820Z,74.30
2018-11-28T03:27:16.904Z,74.60
2018-11-28T03:29:48.651Z,75.70
2018-11-28T03:32:20.446Z,75.90
2018-11-28T03:34:52.520Z,77.00
2018-11-28T03:37:25.217Z,77.80
2018-11-28T03:39:57.765Z,78.30
2018-11-28T03:42:30.375Z,78.70
2018-11-28T03:45:02.799Z,78.90
2018-11-28T03:47:34.938Z,79.20
2018-11-28T03:50:07.183Z,79.50
2018-11-28T03:52:39.462Z,80.00
2018-11-28T03:55:13.035Z,80.20
2018-11-28T03:57:46.224Z,80.40
2018-11-28T04:00:21.135Z,81.00
2018-11-28T04:02:54.473Z,81.30
2018-11-28T04:05:27.297Z,81.30
2018-11-28T04:07:59.763Z,81.40
2018-11-28T04:10:33.025Z,81.10
2018-11-28T04:13:05.044Z,80.80
2018-11-28T04:15:36.912Z,80.40
2018-11-28T04:18:09.299Z,80.60
2018-11-28T04:20:41.273Z,79.70
2018-11-28T04:23:13.516Z,79.40
2018-11-28T04:25:45.822Z,79.10
2018-11-28T04:28:18.188Z,78.60
2018-11-28T04:30:50.806Z,78.40
2018-11-28T04:33:22.722Z,78.50
2018-11-28T04:35:55.095Z,78.50
2018-11-28T04:38:27.222Z,78.20
2018-11-28T04:40:59.698Z,78.70
2018-11-28T04:43:32.028Z,77.80
2018-11-28T04:46:04.261Z,78.00
2018-11-28T04:48:37.496Z,77.80
2018-11-28T04:51:09.745Z,78.00
2018-11-28T04:53:42.275Z,78.20
2018-11-28T04:56:14.766Z,78.30
2018-11-28T04:58:47.062Z,78.50
2018-11-28T05:01:19.515Z,78.10
2018-11-28T05:03:51.865Z,78.80
2018-11-28T05:07:28.780Z,78.30
2018-11-28T05:10:01.459Z,78.90
2018-11-28T05:12:33.342Z,78.60
2018-11-28T05:15:05.279Z,78.60
2018-11-28T05:17:37.119Z,78.40
2018-11-28T05:20:11.787Z,78.10
2018-11-28T05:22:44.409Z,77.90
2018-11-28T05:25:20.339Z,78.10
2018-11-28T05:27:53.592Z,78.40
2018-11-28T05:30:26.361Z,78.50
2018-11-28T05:32:58.189Z,78.10
2018-11-28T05:35:37.100Z,78.20
2018-11-28T05:38:15.257Z,78.50
2018-11-28T05:40:47.719Z,78.00
2018-11-28T05:43:20.664Z,77.80
2018-11-28T05:45:53.471Z,76.90
2018-11-28T05:48:26.365Z,76.70
2018-11-28T05:50:58.176Z,76.50
2018-11-28T05:53:30.651Z,76.00
2018-11-28T05:56:03.547Z,75.70
2018-11-28T05:58:35.344Z,74.90
2018-11-28T06:01:07.752Z,75.00
2018-11-28T06:03:40.090Z,75.20
2018-11-28T06:06:12.401Z,73.70
2018-11-28T06:08:45.315Z,73.80
2018-11-28T06:11:17.578Z,74.80
2018-11-28T06:13:49.853Z,74.10
2018-11-28T06:16:23.408Z,73.90
2018-11-28T06:18:55.484Z,72.70
2018-11-28T06:21:28.205Z,73.30
2018-11-28T06:24:00.875Z,73.00
2018-11-28T06:26:33.374Z,73.10
2018-11-28T06:29:05.644Z,73.40
2018-11-28T06:31:38.119Z,73.50
2018-11-28T06:34:10.180Z,73.30
2018-11-28T06:36:42.459Z,73.40
2018-11-28T06:39:14.490Z,73.60
2018-11-28T06:41:46.863Z,73.50
2018-11-28T06:44:19.078Z,73.30
2018-11-28T06:46:51.335Z,73.40
2018-11-28T06:49:23.780Z,73.60
2018-11-28T06:51:56.374Z,73.60
2018-11-28T06:54:28.916Z,73.60
2018-11-28T06:57:01.294Z,73.70
2018-11-28T06:59:33.640Z,73.80
2018-11-28T07:02:06.521Z,74.20
2018-11-28T07:04:39.019Z,74.10
2018-11-28T07:07:11.588Z,74.00
2018-11-28T07:09:44.128Z,74.20
2018-11-28T07:12:16.710Z,74.20
2018-11-28T07:14:49.104Z,74.60
2018-11-28T07:17:21.691Z,74.80
2018-11-28T07:19:54.074Z,75.10
2018-11-28T07:22:26.239Z,74.90
2018-11-28T07:24:58.830Z,75.40
2018-11-28T07:27:31.164Z,76.50
2018-11-28T07:30:03.755Z,76.90
2018-11-28T07:32:36.103Z,77.00
2018-11-28T07:35:09.245Z,77.20
2018-11-28T07:37:41.568Z,77.80
2018-11-28T07:40:16.600Z,78.20
2018-11-28T07:42:57.379Z,78.70
2018-11-28T07:45:29.806Z,79.70
2018-11-28T07:48:02.055Z,80.40
2018-11-28T07:50:35.008Z,81.80
2018-11-28T07:53:07.534Z,82.80
2018-11-28T07:55:39.759Z,83.70
2018-11-28T07:58:12.066Z,84.20
2018-11-28T08:00:44.717Z,84.20
2018-11-28T08:03:17.007Z,84.40
2018-11-28T08:05:49.393Z,84.40
2018-11-28T08:08:21.986Z,84.80
2018-11-28T08:10:54.542Z,84.70
2018-11-28T08:13:26.993Z,84.50
2018-11-28T08:15:59.438Z,84.50
2018-11-28T08:18:31.970Z,83.80
2018-11-28T08:21:04.339Z,83.60
2018-11-28T08:23:36.562Z,83.30
2018-11-28T08:26:08.845Z,83.40
2018-11-28T08:28:41.120Z,82.90
2018-11-28T08:31:13.341Z,82.50
2018-11-28T08:33:45.470Z,82.50
2018-11-28T08:36:17.870Z,82.70
2018-11-28T08:38:50.269Z,82.40
2018-11-28T08:41:23.351Z,82.10
2018-11-28T08:43:55.679Z,81.50
2018-11-28T08:46:27.871Z,80.70
2018-11-28T08:49:00.106Z,80.10
2018-11-28T08:51:32.508Z,80.70
2018-11-28T08:54:04.899Z,81.10
2018-11-28T08:56:37.276Z,81.10
2018-11-28T08:59:09.539Z,81.50
2018-11-28T09:01:41.568Z,81.30
2018-11-28T09:04:13.866Z,82.00
2018-11-28T09:06:46.076Z,82.70
2018-11-28T09:09:18.551Z,83.90
2018-11-28T09:11:50.739Z,85.80
2018-11-28T09:14:23.421Z,85.90
2018-11-28T09:16:56.033Z,86.00
2018-11-28T09:19:28.063Z,86.00
2018-11-28T09:22:00.693Z,86.80
2018-11-28T09:24:32.997Z,86.90
2018-11-28T09:27:05.261Z,87.50
2018-11-28T09:29:37.478Z,88.10
2018-11-28T09:32:10.120Z,89.70
2018-11-28T09:34:42.489Z,90.20
2018-11-28T09:37:14.687Z,90.70
2018-11-28T09:39:47.241Z,91.10
2018-11-28T09:42:19.720Z,91.30
2018-11-28T09:44:51.789Z,91.60
2018-11-28T09:47:24.155Z,92.20
2018-11-28T09:49:56.405Z,92.60
2018-11-28T09:52:28.955Z,92.90
2018-11-28T09:55:01.283Z,93.30
2018-11-28T09:57:33.398Z,93.70
2018-11-28T10:00:06.262Z,94.10
2018-11-28T10:02:38.688Z,94.00
2018-11-28T10:05:15.662Z,94.20
2018-11-28T10:07:48.010Z,94.30
2018-11-28T10:10:20.411Z,94.60
2018-11-28T10:12:52.933Z,94.80
2018-11-28T10:15:25.789Z,94.90
2018-11-28T10:17:58.120Z,94.80
2018-11-28T10:20:30.497Z,94.90
2018-11-28T10:23:02.797Z,95.00
2018-11-28T10:25:35.287Z,95.00
2018-11-28T10:28:09.591Z,94.70
2018-11-28T10:30:42.137Z,94.70
2018-11-28T10:33:15.199Z,94.70
2018-11-28T10:35:47.517Z,94.70
2018-11-28T10:38:20.513Z,94.70
2018-11-28T10:40:52.860Z,94.70
2018-11-28T10:43:25.278Z,94.70
2018-11-28T10:45:57.760Z,94.80
2018-11-28T10:48:29.924Z,94.80
2018-11-28T10:51:02.237Z,95.10
2018-11-28T10:53:34.623Z,95.40
2018-11-28T10:56:07.517Z,95.70
2018-11-28T10:58:39.825Z,96.00
2018-11-28T11:01:16.379Z,96.40
2018-11-28T11:03:53.262Z,96.70
2018-11-28T11:06:30.041Z,96.90
2018-11-28T11:09:07.561Z,97.00
2018-11-28T11:11:44.508Z,97.30
2018-11-28T11:14:53.046Z,97.50
2018-11-28T11:17:25.421Z,97.60
2018-11-28T11:19:58.171Z,97.70
2018-11-28T11:22:30.222Z,97.80
2018-11-28T11:25:02.682Z,97.90
2018-11-28T11:27:34.730Z,97.90
2018-11-28T11:30:08.532Z,97.90
2018-11-28T11:32:40.688Z,98.00
2018-11-28T11:35:13.411Z,97.90
2018-11-28T11:37:45.659Z,97.90
2018-11-28T11:40:18.057Z,98.00
2018-11-28T11:42:50.485Z,98.00
2018-11-28T11:45:22.749Z,98.00
2018-11-28T11:47:55.167Z,98.00
2018-11-28T11:50:27.552Z,97.90
2018-11-28T11:53:00.098Z,97.90
2018-11-28T11:55:32.219Z,97.90
2018-11-28T11:58:04.604Z,98.10
2018-11-28T12:00:39.470Z,97.80
2018-11-28T12:03:12.651Z,97.90
2018-11-28T12:05:47.803Z,97.90
2018-11-28T12:08:20.425Z,98.00
2018-11-28T12:10:52.813Z,98.00
2018-11-28T12:13:25.165Z,98.00
2018-11-28T12:15:57.488Z,98.10
2018-11-28T12:18:30.113Z,98.10
2018-11-28T12:21:05.248Z,98.10
2018-11-28T12:23:37.875Z,98.10
2018-11-28T12:26:10.191Z,97.90
2018-11-28T12:28:42.953Z,98.00
2018-11-28T12:31:15.369Z,97.90
2018-11-28T12:33:48.258Z,98.20
2018-11-28T12:36:21.008Z,98.00
2018-11-28T12:38:53.562Z,98.10
2018-11-28T12:41:25.921Z,97.90
2018-11-28T12:43:58.536Z,97.80
2018-11-28T12:46:31.279Z,97.70
2018-11-28T12:49:03.416Z,97.70
2018-11-28T12:51:36.024Z,97.70
2018-11-28T12:54:08.126Z,97.80
2018-11-28T12:56:40.500Z,97.80
2018-11-28T12:59:12.873Z,97.80
2018-11-28T13:01:45.247Z,97.70
2018-11-28T13:04:17.565Z,97.70
2018-11-28T13:06:50.128Z,97.70
2018-11-28T13:09:22.507Z,97.60
2018-11-28T13:11:59.882Z,97.80
2018-11-28T13:14:27.711Z,97.80
2018-11-28T13:17:00.014Z,98.00
2018-11-28T13:19:32.176Z,98.10
2018-11-28T13:22:04.584Z,98.40
2018-11-28T13:24:37.339Z,98.60
2018-11-28T13:27:10.119Z,98.70
2018-11-28T13:29:42.498Z,98.80
2018-11-28T13:32:14.896Z,98.90
2018-11-28T13:34:47.205Z,99.00
2018-11-28T13:37:20.239Z,99.10
2018-11-28T13:39:52.669Z,99.10
2018-11-28T13:42:24.873Z,99.10
2018-11-28T13:44:56.980Z,99.20
2018-11-28T13:47:28.967Z,99.20
2018-11-28T13:50:01.144Z,99.10
2018-11-28T13:52:33.685Z,99.20
2018-11-28T13:55:37.753Z,99.10
2018-11-28T13:57:39.811Z,99.30
2018-11-28T14:00:12.573Z,99.10
2018-11-28T14:02:45.007Z,99.20
2018-11-28T14:05:17.395Z,99.00
2018-11-28T14:07:49.841Z,98.70
2018-11-28T14:10:21.932Z,98.10
2018-11-28T14:12:54.809Z,98.00
2018-11-28T14:15:27.592Z,97.70
2018-11-28T14:18:00.976Z,97.40
2018-11-28T14:20:33.307Z,97.10
2018-11-28T14:23:06.348Z,96.60
2018-11-28T14:25:38.476Z,96.20
2018-11-28T14:28:11.676Z,95.80
2018-11-28T14:30:44.019Z,94.60
2018-11-28T14:33:16.151Z,94.60
2018-11-28T14:35:48.339Z,94.20
2018-11-28T14:38:21.450Z,94.20
2018-11-28T14:40:53.674Z,93.80
2018-11-28T14:43:26.025Z,93.60
2018-11-28T14:45:58.400Z,93.50
2018-11-28T14:48:30.542Z,93.30
2018-11-28T14:51:02.836Z,92.90
2018-11-28T14:53:35.200Z,92.30
2018-11-28T14:56:07.719Z,92.20
2018-11-28T14:58:40.286Z,91.60
2018-11-28T15:01:12.680Z,91.30
2018-11-28T15:03:45.097Z,90.10
2018-11-28T15:06:24.775Z,88.80
2018-11-28T15:09:01.723Z,88.50
2018-11-28T15:11:33.866Z,86.40
2018-11-28T15:14:06.506Z,87.40
2018-11-28T15:16:38.579Z,87.60
2018-11-28T15:19:11.004Z,86.20
2018-11-28T15:21:43.552Z,86.30
2018-11-28T15:24:15.649Z,86.60
2018-11-28T15:26:48.071Z,86.10
2018-11-28T15:29:20.419Z,86.40
2018-11-28T15:31:53.306Z,86.40
2018-11-28T15:34:25.837Z,85.30
2018-11-28T15:36:58.150Z,85.00
2018-11-28T15:39:30.783Z,85.80
2018-11-28T15:42:03.076Z,86.00
2018-11-28T15:44:35.414Z,86.60
2018-11-28T15:47:07.931Z,87.20
2018-11-28T15:49:40.203Z,86.30
2018-11-28T15:52:12.580Z,86.30
2018-11-28T15:54:45.030Z,86.10
2018-11-28T15:57:17.602Z,86.30
2018-11-28T15:59:49.798Z,86.70
2018-11-28T16:02:22.186Z,86.70
2018-11-28T16:04:54.728Z,86.50
2018-11-28T16:07:27.191Z,86.80
2018-11-28T16:10:04.017Z,87.00
2018-11-28T16:12:36.200Z,87.30
2018-11-28T16:15:09.418Z,87.60
2018-11-28T16:17:42.300Z,88.10
2018-11-28T16:20:14.669Z,88.00
2018-11-28T16:22:46.962Z,88.70
2018-11-28T16:25:19.639Z,89.70
2018-11-28T16:27:51.852Z,90.30
2018-11-28T16:30:24.270Z,90.70
2018-11-28T16:32:56.679Z,91.00
2018-11-28T16:35:29.035Z,91.50
2018-11-28T16:38:01.561Z,91.70
2018-11-28T16:40:33.863Z,91.90
2018-11-28T16:43:06.250Z,92.10
2018-11-28T16:45:38.545Z,92.20
2018-11-28T16:48:10.810Z,92.50
2018-11-28T16:50:43.284Z,92.60
2018-11-28T16:53:15.700Z,92.70
2018-11-28T16:55:47.816Z,92.80
2018-11-28T16:58:20.397Z,92.60
2018-11-28T17:00:52.666Z,92.60
2018-11-28T17:03:25.239Z,92.60
2018-11-28T17:05:57.641Z,92.70
2018-11-28T17:08:29.758Z,92.70
2018-11-28T17:11:02.371Z,92.60
2018-11-28T17:13:34.889Z,92.70
2018-11-28T17:16:07.728Z,93.00
2018-11-28T17:18:40.236Z,92.90
2018-11-28T17:21:12.608Z,93.00
2018-11-28T17:23:44.839Z,93.30
2018-11-28T17:26:17.016Z,93.40
2018-11-28T17:28:49.616Z,93.30
2018-11-28T17:31:22.126Z,93.40
2018-11-28T17:33:54.509Z,93.50
2018-11-28T17:36:27.143Z,93.40
2018-11-28T17:38:59.469Z,93.40
2018-11-28T17:41:32.012Z,93.30
2018-11-28T17:44:04.474Z,93.00
2018-11-28T17:46:36.914Z,93.10
2018-11-28T17:49:09.412Z,92.80
2018-11-28T17:51:42.056Z,92.50
2018-11-28T17:54:15.232Z,92.40
2018-11-28T17:56:47.449Z,92.60
2018-11-28T17:59:19.994Z,92.50
2018-11-28T18:01:52.036Z,92.60
2018-11-28T18:04:29.917Z,92.60
2018-11-28T18:06:57.266Z,92.80
2018-11-28T18:09:29.533Z,93.00
2018-11-28T18:12:02.034Z,93.20
2018-11-28T18:14:34.311Z,93.20
2018-11-28T18:17:06.724Z,93.30
2018-11-28T18:19:39.526Z,93.40
2018-11-28T18:22:12.036Z,93.10
2018-11-28T18:24:44.111Z,93.30
2018-11-28T18:27:16.738Z,93.40
2018-11-28T18:29:49.018Z,93.50
2018-11-28T18:32:21.267Z,93.50
2018-11-28T18:34:53.973Z,93.70
2018-11-28T18:37:26.351Z,93.60
2018-11-28T18:39:58.917Z,93.80
2018-11-28T18:42:31.595Z,93.90
2018-11-28T18:45:04.266Z,93.90
2018-11-28T18:47:36.490Z,94.40
2018-11-28T18:50:09.817Z,94.50
2018-11-28T18:52:42.119Z,94.80
2018-11-28T18:55:17.944Z,95.20
2018-11-28T18:57:53.419Z,95.20
2018-11-28T19:00:26.309Z,95.30
2018-11-28T19:02:58.839Z,95.50
2018-11-28T19:05:30.986Z,95.40
2018-11-28T19:08:03.488Z,95.40
2018-11-28T19:10:35.659Z,95.40
2018-11-28T19:13:08.376Z,95.20
2018-11-28T19:15:40.625Z,95.50
2018-11-28T19:18:13.000Z,95.20
2018-11-28T19:20:45.403Z,95.10
2018-11-28T19:23:17.587Z,95.20
2018-11-28T19:25:50.328Z,95.30
2018-11-28T19:28:22.473Z,95.00
2018-11-28T19:30:54.824Z,95.20
2018-11-28T19:33:27.421Z,95.20
2018-11-28T19:35:59.763Z,95.20
2018-11-28T19:38:32.279Z,94.80
2018-11-28T19:41:08.232Z,94.80
2018-11-28T19:43:40.686Z,94.90
2018-11-28T19:46:13.589Z,94.90
2018-11-28T19:48:45.675Z,95.00
2018-11-28T19:51:18.194Z,94.80
2018-11-28T19:53:50.791Z,94.60
2018-11-28T19:56:23.106Z,94.00
2018-11-28T19:58:55.624Z,93.70
2018-11-28T20:01:28.130Z,93.20
2018-11-28T20:04:00.663Z,93.30
2018-11-28T20:06:33.219Z,93.30
2018-11-28T20:09:06.960Z,93.10
2018-11-28T20:11:39.235Z,93.10
2018-11-28T20:14:11.559Z,92.30
2018-11-28T20:16:43.751Z,92.50
2018-11-28T20:19:17.662Z,91.80
2018-11-28T20:21:49.719Z,92.00
2018-11-28T20:24:22.245Z,91.90
2018-11-28T20:26:54.617Z,92.40
2018-11-28T20:29:26.926Z,92.70
2018-11-28T20:31:59.101Z,92.80
2018-11-28T20:34:32.931Z,92.90
2018-11-28T20:37:05.304Z,92.60
2018-11-28T20:39:37.853Z,92.80
2018-11-28T20:42:09.874Z,92.60
2018-11-28T20:44:42.182Z,92.50
2018-11-28T20:47:14.373Z,92.50
2018-11-28T20:49:46.743Z,92.50
2018-11-28T20:52:19.061Z,92.10
2018-11-28T20:55:07.139Z,92.70
2018-11-28T20:57:39.312Z,92.60
2018-11-28T21:00:19.744Z,92.00
2018-11-28T21:02:52.293Z,92.10
2018-11-28T21:05:24.678Z,92.00
2018-11-28T21:07:57.174Z,92.40
2018-11-28T21:10:34.010Z,92.60
2018-11-28T21:13:06.729Z,92.80
2018-11-28T21:15:39.201Z,93.40
2018-11-28T21:18:12.441Z,93.60
2018-11-28T21:20:45.733Z,93.90
2018-11-28T21:23:18.891Z,94.10
2018-11-28T21:25:51.409Z,94.40
2018-11-28T21:28:23.517Z,94.70
2018-11-28T21:30:55.650Z,94.80
2018-11-28T21:33:27.834Z,94.90
2018-11-28T21:36:00.618Z,95.30
2018-11-28T21:38:32.796Z,95.40
2018-11-28T21:41:05.017Z,95.50
2018-11-28T21:43:37.315Z,95.40
2018-11-28T21:46:10.101Z,95.20
2018-11-28T21:48:42.663Z,95.80
2018-11-28T21:51:15.034Z,95.50
2018-11-28T21:53:47.552Z,95.40
2018-11-28T21:56:19.980Z,95.60
2018-11-28T21:58:52.530Z,95.70
2018-11-28T22:01:24.918Z,95.80
2018-11-28T22:03:57.262Z,96.00
2018-11-28T22:06:29.612Z,96.20
2018-11-28T22:09:02.998Z,96.50
2018-11-28T22:11:35.189Z,96.70
2018-11-28T22:14:07.866Z,96.80
2018-11-28T22:16:39.939Z,97.00
2018-11-28T22:19:12.455Z,97.10
2018-11-28T22:21:44.912Z,97.20
2018-11-28T22:24:17.237Z,97.40
2018-11-28T22:26:49.640Z,97.50
2018-11-28T22:29:21.984Z,97.40
2018-11-28T22:31:54.408Z,97.40
2018-11-28T22:34:26.785Z,97.40
2018-11-28T22:36:59.326Z,97.40
2018-11-28T22:39:31.848Z,97.50
2018-11-28T22:42:04.261Z,97.60
2018-11-28T22:44:36.587Z,97.50
2018-11-28T22:47:08.974Z,97.70
2018-11-28T22:49:41.027Z,97.80
2018-11-28T22:52:13.315Z,97.80
2018-11-28T22:54:45.570Z,97.80
2018-11-28T22:57:17.754Z,97.70
2018-11-28T22:59:50.136Z,97.80
2018-11-28T23:02:40.798Z,97.80
2018-11-28T23:05:13.070Z,97.80
2018-11-28T23:07:45.308Z,97.80
2018-11-28T23:10:17.487Z,97.90
2018-11-28T23:12:50.017Z,98.00
2018-11-28T23:15:22.185Z,98.00
2018-11-28T23:17:55.489Z,98.10
2018-11-28T23:20:27.139Z,98.10
2018-11-28T23:22:59.729Z,98.00
2018-11-28T23:25:32.261Z,98.00
2018-11-28T23:28:04.695Z,97.70
2018-11-28T23:30:37.038Z,97.70
2018-11-28T23:33:16.099Z,97.60
2018-11-28T23:35:45.458Z,97.40
2018-11-28T23:38:18.269Z,97.20
2018-11-28T23:40:50.840Z,97.10
2018-11-28T23:43:23.204Z,97.00
2018-11-28T23:45:56.605Z,97.10
2018-11-28T23:48:29.172Z,97.00
2018-11-28T23:51:01.858Z,96.90
2018-11-28T23:53:34.236Z,96.60
2018-11-28T23:56:06.977Z,96.40
2018-11-28T23:58:39.347Z,96.40
